sensor_id;sensor_type;location;lat;lon;timestamp;pressure;altitude;pressure_sealevel;temperature;humidity
69402;BME280;56589;51.992;5.924;2023-04-02T00:01:16;100557.38;;;4.94;89.21
69402;BME280;56589;51.992;5.924;2023-04-02T00:04:03;100556.63;;;4.92;89.10
69402;BME280;56589;51.992;5.924;2023-04-02T00:06:33;100561.88;;;4.90;89.23
69402;BME280;56589;51.992;5.924;2023-04-02T00:09:19;100571.31;;;4.93;89.60
69402;BME280;56589;51.992;5.924;2023-04-02T00:11:49;100573.91;;;4.93;89.41
69402;BME280;56589;51.992;5.924;2023-04-02T00:14:21;100574.69;;;4.95;89.55
69402;BME280;56589;51.992;5.924;2023-04-02T00:16:51;100585.88;;;4.97;89.21
69402;BME280;56589;51.992;5.924;2023-04-02T00:19:22;100593.88;;;4.92;88.54
69402;BME280;56589;51.992;5.924;2023-04-02T00:21:52;100593.97;;;4.91;88.25
69402;BME280;56589;51.992;5.924;2023-04-02T00:24:23;100607.00;;;4.89;88.47
69402;BME280;56589;51.992;5.924;2023-04-02T00:26:50;100607.84;;;4.90;88.52
69402;BME280;56589;51.992;5.924;2023-04-02T00:29:18;100600.91;;;4.90;88.38
69402;BME280;56589;51.992;5.924;2023-04-02T00:31:47;100619.00;;;4.93;88.66
69402;BME280;56589;51.992;5.924;2023-04-02T00:34:18;100614.50;;;4.97;88.44
69402;BME280;56589;51.992;5.924;2023-04-02T00:36:47;100620.56;;;4.98;88.61
69402;BME280;56589;51.992;5.924;2023-04-02T00:39:18;100621.31;;;5.00;88.77
69402;BME280;56589;51.992;5.924;2023-04-02T00:41:50;100633.41;;;5.01;88.69
69402;BME280;56589;51.992;5.924;2023-04-02T00:44:18;100636.09;;;4.99;88.90
69402;BME280;56589;51.992;5.924;2023-04-02T00:46:44;100631.72;;;5.00;88.19
69402;BME280;56589;51.992;5.924;2023-04-02T00:49:17;100647.34;;;5.00;88.24
69402;BME280;56589;51.992;5.924;2023-04-02T00:51:49;100638.69;;;4.99;88.65
69402;BME280;56589;51.992;5.924;2023-04-02T00:54:20;100639.72;;;4.95;87.89
69402;BME280;56589;51.992;5.924;2023-04-02T00:56:54;100637.34;;;4.89;87.55
69402;BME280;56589;51.992;5.924;2023-04-02T00:59:26;100658.38;;;4.84;87.57
69402;BME280;56589;51.992;5.924;2023-04-02T01:01:57;100652.38;;;4.82;87.14
69402;BME280;56589;51.992;5.924;2023-04-02T01:04:51;100657.72;;;4.79;87.38
69402;BME280;56589;51.992;5.924;2023-04-02T01:07:23;100668.13;;;4.79;87.38
69402;BME280;56589;51.992;5.924;2023-04-02T01:10:12;100675.16;;;4.77;87.30
69402;BME280;56589;51.992;5.924;2023-04-02T01:13:02;100669.03;;;4.78;87.42
69402;BME280;56589;51.992;5.924;2023-04-02T01:15:40;100678.53;;;4.79;87.56
69402;BME280;56589;51.992;5.924;2023-04-02T01:18:25;100681.22;;;4.78;87.75
69402;BME280;56589;51.992;5.924;2023-04-02T01:21:16;100688.41;;;4.71;86.78
69402;BME280;56589;51.992;5.924;2023-04-02T01:24:00;100685.94;;;4.68;86.57
69402;BME280;56589;51.992;5.924;2023-04-02T01:26:42;100693.72;;;4.68;87.00
69402;BME280;56589;51.992;5.924;2023-04-02T01:29:18;100689.44;;;4.67;86.97
69402;BME280;56589;51.992;5.924;2023-04-02T01:31:48;100700.78;;;4.64;87.04
69402;BME280;56589;51.992;5.924;2023-04-02T01:34:19;100703.53;;;4.61;86.92
69402;BME280;56589;51.992;5.924;2023-04-02T01:36:56;100713.09;;;4.61;86.71
69402;BME280;56589;51.992;5.924;2023-04-02T01:39:49;100712.38;;;4.57;86.61
69402;BME280;56589;51.992;5.924;2023-04-02T01:42:28;100721.91;;;4.57;86.69
69402;BME280;56589;51.992;5.924;2023-04-02T01:45:04;100728.88;;;4.56;86.50
69402;BME280;56589;51.992;5.924;2023-04-02T01:47:34;100733.22;;;4.56;86.23
69402;BME280;56589;51.992;5.924;2023-04-02T01:50:02;100743.78;;;4.53;85.94
69402;BME280;56589;51.992;5.924;2023-04-02T01:52:47;100743.81;;;4.51;85.91
69402;BME280;56589;51.992;5.924;2023-04-02T01:55:18;100745.50;;;4.52;86.32
69402;BME280;56589;51.992;5.924;2023-04-02T01:57:51;100754.09;;;4.54;86.20
69402;BME280;56589;51.992;5.924;2023-04-02T02:00:21;100755.84;;;4.54;85.97
69402;BME280;56589;51.992;5.924;2023-04-02T02:02:49;100757.63;;;4.53;86.12
69402;BME280;56589;51.992;5.924;2023-04-02T02:05:18;100755.00;;;4.53;85.57
69402;BME280;56589;51.992;5.924;2023-04-02T02:07:46;100758.47;;;4.54;86.10
69402;BME280;56589;51.992;5.924;2023-04-02T02:10:14;100761.97;;;4.53;85.76
69402;BME280;56589;51.992;5.924;2023-04-02T02:12:43;100780.94;;;4.55;86.11
69402;BME280;56589;51.992;5.924;2023-04-02T02:15:13;100778.34;;;4.55;85.97
69402;BME280;56589;51.992;5.924;2023-04-02T02:17:43;100781.78;;;4.55;85.84
69402;BME280;56589;51.992;5.924;2023-04-02T02:20:10;100783.47;;;4.56;86.17
69402;BME280;56589;51.992;5.924;2023-04-02T02:22:39;100786.00;;;4.58;86.36
69402;BME280;56589;51.992;5.924;2023-04-02T02:25:12;100792.06;;;4.58;86.15
69402;BME280;56589;51.992;5.924;2023-04-02T02:27:53;100797.25;;;4.58;86.47
69402;BME280;56589;51.992;5.924;2023-04-02T02:30:26;100803.50;;;4.54;85.77
69402;BME280;56589;51.992;5.924;2023-04-02T02:33:00;100814.00;;;4.51;85.54
69402;BME280;56589;51.992;5.924;2023-04-02T02:35:36;100808.09;;;4.48;85.76
69402;BME280;56589;51.992;5.924;2023-04-02T02:38:27;100816.81;;;4.47;86.05
69402;BME280;56589;51.992;5.924;2023-04-02T02:41:10;100833.41;;;4.43;85.74
69402;BME280;56589;51.992;5.924;2023-04-02T02:43:44;100825.84;;;4.36;85.39
69402;BME280;56589;51.992;5.924;2023-04-02T02:46:19;100827.66;;;4.34;85.92
69402;BME280;56589;51.992;5.924;2023-04-02T02:48:51;100836.47;;;4.30;85.77
69402;BME280;56589;51.992;5.924;2023-04-02T02:51:23;100840.91;;;4.27;85.08
69402;BME280;56589;51.992;5.924;2023-04-02T02:53:56;100844.50;;;4.24;85.34
69402;BME280;56589;51.992;5.924;2023-04-02T02:56:28;100842.81;;;4.23;85.91
69402;BME280;56589;51.992;5.924;2023-04-02T02:58:59;100861.91;;;4.22;85.45
69402;BME280;56589;51.992;5.924;2023-04-02T03:01:28;100868.03;;;4.20;85.48
69402;BME280;56589;51.992;5.924;2023-04-02T03:03:58;100869.06;;;4.16;85.15
69402;BME280;56589;51.992;5.924;2023-04-02T03:06:25;100885.53;;;4.15;85.05
69402;BME280;56589;51.992;5.924;2023-04-02T03:08:56;100878.78;;;4.10;85.34
69402;BME280;56589;51.992;5.924;2023-04-02T03:11:35;100882.31;;;4.08;84.99
69402;BME280;56589;51.992;5.924;2023-04-02T03:14:14;100891.09;;;4.05;84.86
69402;BME280;56589;51.992;5.924;2023-04-02T03:16:48;100897.22;;;4.03;84.76
69402;BME280;56589;51.992;5.924;2023-04-02T03:19:28;100899.81;;;4.03;84.67
69402;BME280;56589;51.992;5.924;2023-04-02T03:22:03;100891.25;;;4.01;84.56
69402;BME280;56589;51.992;5.924;2023-04-02T03:24:40;100899.03;;;4.01;84.86
69402;BME280;56589;51.992;5.924;2023-04-02T03:27:16;100910.19;;;4.04;84.65
69402;BME280;56589;51.992;5.924;2023-04-02T03:30:00;100912.66;;;4.07;84.95
69402;BME280;56589;51.992;5.924;2023-04-02T03:32:41;100910.19;;;4.04;84.35
69402;BME280;56589;51.992;5.924;2023-04-02T03:35:18;100925.66;;;4.07;84.63
69402;BME280;56589;51.992;5.924;2023-04-02T03:37:52;100926.56;;;4.06;84.82
69402;BME280;56589;51.992;5.924;2023-04-02T03:40:28;100929.06;;;4.09;84.40
69402;BME280;56589;51.992;5.924;2023-04-02T03:43:01;100930.84;;;4.07;84.18
69402;BME280;56589;51.992;5.924;2023-04-02T03:45:38;100937.09;;;4.02;84.47
69402;BME280;56589;51.992;5.924;2023-04-02T03:48:10;100949.38;;;3.97;83.81
69402;BME280;56589;51.992;5.924;2023-04-02T03:50:47;100951.31;;;3.92;83.76
69402;BME280;56589;51.992;5.924;2023-04-02T03:53:22;100962.63;;;3.89;83.87
69402;BME280;56589;51.992;5.924;2023-04-02T03:55:49;100972.25;;;3.87;84.11
69402;BME280;56589;51.992;5.924;2023-04-02T03:58:22;100973.19;;;3.84;84.33
69402;BME280;56589;51.992;5.924;2023-04-02T04:00:56;100982.00;;;3.80;83.83
69402;BME280;56589;51.992;5.924;2023-04-02T04:03:30;100987.25;;;3.77;83.37
69402;BME280;56589;51.992;5.924;2023-04-02T04:06:09;100989.88;;;3.77;83.92
69402;BME280;56589;51.992;5.924;2023-04-02T04:08:42;100995.97;;;3.76;83.48
69402;BME280;56589;51.992;5.924;2023-04-02T04:11:14;101006.34;;;3.76;83.35
69402;BME280;56589;51.992;5.924;2023-04-02T04:13:46;101000.38;;;3.74;83.89
69402;BME280;56589;51.992;5.924;2023-04-02T04:16:21;101014.13;;;3.76;83.54
69402;BME280;56589;51.992;5.924;2023-04-02T04:18:55;101022.84;;;3.75;84.07
69402;BME280;56589;51.992;5.924;2023-04-02T04:21:30;101019.34;;;3.76;83.52
69402;BME280;56589;51.992;5.924;2023-04-02T04:23:59;101031.47;;;3.76;83.58
69402;BME280;56589;51.992;5.924;2023-04-02T04:26:34;101036.59;;;3.77;83.85
69402;BME280;56589;51.992;5.924;2023-04-02T04:29:14;101039.31;;;3.74;83.43
69402;BME280;56589;51.992;5.924;2023-04-02T04:31:51;101044.66;;;3.70;82.96
69402;BME280;56589;51.992;5.924;2023-04-02T04:34:19;101046.59;;;3.63;82.76
69402;BME280;56589;51.992;5.924;2023-04-02T04:36:56;101051.00;;;3.59;83.14
69402;BME280;56589;51.992;5.924;2023-04-02T04:39:32;101059.75;;;3.57;82.84
69402;BME280;56589;51.992;5.924;2023-04-02T04:42:14;101062.34;;;3.57;82.85
69402;BME280;56589;51.992;5.924;2023-04-02T04:44:49;101087.53;;;3.53;82.44
69402;BME280;56589;51.992;5.924;2023-04-02T04:47:23;101084.28;;;3.47;81.90
69402;BME280;56589;51.992;5.924;2023-04-02T04:49:56;101090.56;;;3.40;81.64
69402;BME280;56589;51.992;5.924;2023-04-02T04:52:34;101091.63;;;3.32;81.87
69402;BME280;56589;51.992;5.924;2023-04-02T04:55:26;101109.94;;;3.28;81.61
69402;BME280;56589;51.992;5.924;2023-04-02T04:57:59;101116.25;;;3.19;80.83
69402;BME280;56589;51.992;5.924;2023-04-02T05:00:38;101112.03;;;3.15;80.80
69402;BME280;56589;51.992;5.924;2023-04-02T05:03:17;101128.66;;;3.08;80.05
69402;BME280;56589;51.992;5.924;2023-04-02T05:05:51;101134.91;;;3.01;79.81
69402;BME280;56589;51.992;5.924;2023-04-02T05:08:51;101141.97;;;2.96;80.15
69402;BME280;56589;51.992;5.924;2023-04-02T05:11:27;101150.69;;;2.93;80.29
69402;BME280;56589;51.992;5.924;2023-04-02T05:14:00;101162.81;;;2.91;80.09
69402;BME280;56589;51.992;5.924;2023-04-02T05:16:31;101164.72;;;2.85;78.67
69402;BME280;56589;51.992;5.924;2023-04-02T05:19:06;101172.75;;;2.75;79.84
69402;BME280;56589;51.992;5.924;2023-04-02T05:21:41;101175.50;;;2.69;79.55
69402;BME280;56589;51.992;5.924;2023-04-02T05:24:36;101183.38;;;2.65;79.88
69402;BME280;56589;51.992;5.924;2023-04-02T05:27:17;101186.03;;;2.62;79.71
69402;BME280;56589;51.992;5.924;2023-04-02T05:29:54;101192.97;;;2.61;79.68
69402;BME280;56589;51.992;5.924;2023-04-02T05:32:30;101193.13;;;2.55;79.51
69402;BME280;56589;51.992;5.924;2023-04-02T05:34:59;101197.53;;;2.52;79.52
69402;BME280;56589;51.992;5.924;2023-04-02T05:37:28;101206.16;;;2.52;79.72
69402;BME280;56589;51.992;5.924;2023-04-02T05:40:00;101217.44;;;2.51;79.30
69402;BME280;56589;51.992;5.924;2023-04-02T05:42:35;101220.91;;;2.50;79.27
69402;BME280;56589;51.992;5.924;2023-04-02T05:45:08;101219.22;;;2.47;79.07
69402;BME280;56589;51.992;5.924;2023-04-02T05:47:45;101223.53;;;2.48;79.76
69402;BME280;56589;51.992;5.924;2023-04-02T05:50:20;101226.97;;;2.49;79.64
69402;BME280;56589;51.992;5.924;2023-04-02T05:52:55;101228.84;;;2.44;79.07
69402;BME280;56589;51.992;5.924;2023-04-02T05:55:42;101239.16;;;2.45;79.45
69402;BME280;56589;51.992;5.924;2023-04-02T05:58:21;101247.75;;;2.47;79.39
69402;BME280;56589;51.992;5.924;2023-04-02T06:01:03;101250.31;;;2.47;79.30
69402;BME280;56589;51.992;5.924;2023-04-02T06:03:41;101258.09;;;2.47;79.32
69402;BME280;56589;51.992;5.924;2023-04-02T06:06:18;101259.03;;;2.45;79.05
69402;BME280;56589;51.992;5.924;2023-04-02T06:08:56;101265.97;;;2.43;79.54
69402;BME280;56589;51.992;5.924;2023-04-02T06:11:31;101269.53;;;2.39;78.12
69402;BME280;56589;51.992;5.924;2023-04-02T06:14:04;101275.63;;;2.38;79.09
69402;BME280;56589;51.992;5.924;2023-04-02T06:16:30;101281.59;;;2.40;79.47
69402;BME280;56589;51.992;5.924;2023-04-02T06:18:57;101288.44;;;2.42;78.96
69402;BME280;56589;51.992;5.924;2023-04-02T06:21:24;101289.25;;;2.46;79.31
69402;BME280;56589;51.992;5.924;2023-04-02T06:23:54;101302.25;;;2.44;78.18
69402;BME280;56589;51.992;5.924;2023-04-02T06:26:26;101313.66;;;2.36;78.26
69402;BME280;56589;51.992;5.924;2023-04-02T06:29:00;101311.19;;;2.30;78.49
69402;BME280;56589;51.992;5.924;2023-04-02T06:31:35;101335.47;;;2.26;78.74
69402;BME280;56589;51.992;5.924;2023-04-02T06:34:13;101334.72;;;2.20;78.21
69402;BME280;56589;51.992;5.924;2023-04-02T06:36:41;101333.88;;;2.18;78.05
69402;BME280;56589;51.992;5.924;2023-04-02T06:39:16;101350.38;;;2.14;77.90
69402;BME280;56589;51.992;5.924;2023-04-02T06:41:53;101344.47;;;2.08;78.40
69402;BME280;56589;51.992;5.924;2023-04-02T06:44:27;101353.94;;;2.09;78.68
69402;BME280;56589;51.992;5.924;2023-04-02T06:46:59;101351.38;;;2.07;78.06
69402;BME280;56589;51.992;5.924;2023-04-02T06:49:32;101364.38;;;2.04;77.75
69402;BME280;56589;51.992;5.924;2023-04-02T06:52:07;101367.91;;;2.02;78.00
69402;BME280;56589;51.992;5.924;2023-04-02T06:54:41;101373.94;;;2.02;78.18
69402;BME280;56589;51.992;5.924;2023-04-02T06:57:11;101376.44;;;2.05;78.22
69402;BME280;56589;51.992;5.924;2023-04-02T06:59:38;101379.00;;;2.08;77.89
69402;BME280;56589;51.992;5.924;2023-04-02T07:02:11;101382.41;;;2.10;77.87
69402;BME280;56589;51.992;5.924;2023-04-02T07:04:49;101378.09;;;2.09;77.61
69402;BME280;56589;51.992;5.924;2023-04-02T07:07:15;101398.78;;;2.11;77.69
69402;BME280;56589;51.992;5.924;2023-04-02T07:09:41;101397.88;;;2.13;77.59
69402;BME280;56589;51.992;5.924;2023-04-02T07:12:13;101405.59;;;2.16;77.69
69402;BME280;56589;51.992;5.924;2023-04-02T07:14:39;101408.88;;;2.26;78.23
69402;BME280;56589;51.992;5.924;2023-04-02T07:17:04;101401.88;;;2.30;77.48
69402;BME280;56589;51.992;5.924;2023-04-02T07:19:30;101413.03;;;2.33;77.39
69402;BME280;56589;51.992;5.924;2023-04-02T07:21:56;101425.91;;;2.38;77.83
69402;BME280;56589;51.992;5.924;2023-04-02T07:24:22;101434.41;;;2.44;77.87
69402;BME280;56589;51.992;5.924;2023-04-02T07:26:48;101435.25;;;2.45;76.81
69402;BME280;56589;51.992;5.924;2023-04-02T07:29:16;101439.59;;;2.43;77.10
69402;BME280;56589;51.992;5.924;2023-04-02T07:31:42;101449.88;;;2.47;77.45
69402;BME280;56589;51.992;5.924;2023-04-02T07:34:09;101444.66;;;2.49;77.38
69402;BME280;56589;51.992;5.924;2023-04-02T07:36:35;101454.91;;;2.55;77.75
69402;BME280;56589;51.992;5.924;2023-04-02T07:39:01;101453.94;;;2.62;77.20
69402;BME280;56589;51.992;5.924;2023-04-02T07:41:28;101466.88;;;2.62;76.84
69402;BME280;56589;51.992;5.924;2023-04-02T07:43:54;101466.94;;;2.59;76.79
69402;BME280;56589;51.992;5.924;2023-04-02T07:46:22;101467.78;;;2.60;77.18
69402;BME280;56589;51.992;5.924;2023-04-02T07:48:48;101475.41;;;2.69;77.38
69402;BME280;56589;51.992;5.924;2023-04-02T07:51:16;101475.22;;;2.76;77.15
69402;BME280;56589;51.992;5.924;2023-04-02T07:53:43;101480.31;;;2.81;76.93
69402;BME280;56589;51.992;5.924;2023-04-02T07:56:13;101476.88;;;2.81;76.50
69402;BME280;56589;51.992;5.924;2023-04-02T07:58:40;101486.44;;;2.77;76.22
69402;BME280;56589;51.992;5.924;2023-04-02T08:01:15;101493.34;;;2.78;75.46
69402;BME280;56589;51.992;5.924;2023-04-02T08:03:46;101496.88;;;2.75;75.80
69402;BME280;56589;51.992;5.924;2023-04-02T08:06:12;101496.94;;;2.71;75.64
69402;BME280;56589;51.992;5.924;2023-04-02T08:08:38;101499.63;;;2.66;75.82
69402;BME280;56589;51.992;5.924;2023-04-02T08:11:04;101498.78;;;2.66;75.58
69402;BME280;56589;51.992;5.924;2023-04-02T08:13:30;101510.06;;;2.63;75.58
69402;BME280;56589;51.992;5.924;2023-04-02T08:15:57;101510.13;;;2.60;75.49
69402;BME280;56589;51.992;5.924;2023-04-02T08:18:22;101514.53;;;2.55;74.85
69402;BME280;56589;51.992;5.924;2023-04-02T08:20:51;101522.38;;;2.52;75.52
69402;BME280;56589;51.992;5.924;2023-04-02T08:23:17;101521.59;;;2.47;75.44
69402;BME280;56589;51.992;5.924;2023-04-02T08:25:43;101533.75;;;2.45;75.79
69402;BME280;56589;51.992;5.924;2023-04-02T08:28:09;101540.59;;;2.47;75.76
69402;BME280;56589;51.992;5.924;2023-04-02T08:30:35;101543.03;;;2.57;75.88
69402;BME280;56589;51.992;5.924;2023-04-02T08:33:01;101552.44;;;2.62;76.32
69402;BME280;56589;51.992;5.924;2023-04-02T08:35:27;101554.00;;;2.71;76.32
69402;BME280;56589;51.992;5.924;2023-04-02T08:37:56;101560.69;;;2.83;76.34
69402;BME280;56589;51.992;5.924;2023-04-02T08:40:24;101560.56;;;2.89;75.92
69402;BME280;56589;51.992;5.924;2023-04-02T08:43:05;101558.66;;;2.97;76.19
69402;BME280;56589;51.992;5.924;2023-04-02T08:45:53;101564.72;;;2.96;75.99
69402;BME280;56589;51.992;5.924;2023-04-02T08:48:31;101582.81;;;3.00;75.44
69402;BME280;56589;51.992;5.924;2023-04-02T08:51:01;101576.84;;;2.95;74.47
69402;BME280;56589;51.992;5.924;2023-04-02T08:53:34;101587.16;;;2.98;75.61
69402;BME280;56589;51.992;5.924;2023-04-02T08:56:08;101595.63;;;3.08;75.16
69402;BME280;56589;51.992;5.924;2023-04-02T08:58:39;101595.50;;;3.14;75.22
69402;BME280;56589;51.992;5.924;2023-04-02T09:01:10;101609.16;;;3.22;75.27
69402;BME280;56589;51.992;5.924;2023-04-02T09:03:48;101608.06;;;3.34;74.81
69402;BME280;56589;51.992;5.924;2023-04-02T09:06:18;101614.94;;;3.37;73.81
69402;BME280;56589;51.992;5.924;2023-04-02T09:08:50;101622.59;;;3.43;74.06
69402;BME280;56589;51.992;5.924;2023-04-02T09:11:22;101619.03;;;3.48;74.11
69402;BME280;56589;51.992;5.924;2023-04-02T09:13:55;101623.19;;;3.55;74.55
69402;BME280;56589;51.992;5.924;2023-04-02T09:16:39;101622.03;;;3.69;73.75
69402;BME280;56589;51.992;5.924;2023-04-02T09:19:15;101618.41;;;3.76;73.58
69402;BME280;56589;51.992;5.924;2023-04-02T09:21:54;101629.56;;;3.81;73.04
69402;BME280;56589;51.992;5.924;2023-04-02T09:24:31;101638.06;;;3.88;72.38
69402;BME280;56589;51.992;5.924;2023-04-02T09:26:57;101637.06;;;3.93;73.18
69402;BME280;56589;51.992;5.924;2023-04-02T09:29:41;101652.34;;;4.07;72.11
69402;BME280;56589;51.992;5.924;2023-04-02T09:32:43;101648.88;;;4.06;71.06
69402;BME280;56589;51.992;5.924;2023-04-02T09:35:14;101655.94;;;4.01;71.42
69402;BME280;56589;51.992;5.924;2023-04-02T09:37:42;101653.41;;;3.98;71.54
69402;BME280;56589;51.992;5.924;2023-04-02T09:40:27;101657.72;;;3.99;70.56
69402;BME280;56589;51.992;5.924;2023-04-02T09:43:07;101652.47;;;4.01;71.58
69402;BME280;56589;51.992;5.924;2023-04-02T09:45:36;101671.34;;;4.09;71.77
69402;BME280;56589;51.992;5.924;2023-04-02T09:48:15;101665.94;;;4.18;71.24
69402;BME280;56589;51.992;5.924;2023-04-02T09:50:47;101682.34;;;4.22;70.90
69402;BME280;56589;51.992;5.924;2023-04-02T09:53:27;101674.69;;;4.16;70.71
69402;BME280;56589;51.992;5.924;2023-04-02T09:56:17;101683.41;;;4.11;69.79
69402;BME280;56589;51.992;5.924;2023-04-02T09:59:00;101692.25;;;4.03;70.53
69402;BME280;56589;51.992;5.924;2023-04-02T10:01:30;101697.31;;;4.09;71.57
69402;BME280;56589;51.992;5.924;2023-04-02T10:03:57;101705.88;;;4.16;70.34
69402;BME280;56589;51.992;5.924;2023-04-02T10:06:24;101709.31;;;4.16;71.19
69402;BME280;56589;51.992;5.924;2023-04-02T10:08:52;101716.13;;;4.20;69.55
69402;BME280;56589;51.992;5.924;2023-04-02T10:11:23;101721.41;;;4.17;69.73
69402;BME280;56589;51.992;5.924;2023-04-02T10:13:56;101724.06;;;4.14;69.38
69402;BME280;56589;51.992;5.924;2023-04-02T10:16:27;101725.78;;;4.15;68.07
69402;BME280;56589;51.992;5.924;2023-04-02T10:18:58;101720.56;;;4.15;69.22
69402;BME280;56589;51.992;5.924;2023-04-02T10:21:31;101727.94;;;4.35;68.96
69402;BME280;56589;51.992;5.924;2023-04-02T10:24:00;101731.56;;;4.63;70.21
69402;BME280;56589;51.992;5.924;2023-04-02T10:26:40;101737.66;;;5.00;69.01
69402;BME280;56589;51.992;5.924;2023-04-02T10:29:22;101732.47;;;5.32;66.85
69402;BME280;56589;51.992;5.924;2023-04-02T10:32:07;101742.84;;;5.65;68.56
69402;BME280;56589;51.992;5.924;2023-04-02T10:34:43;101744.34;;;6.03;66.56
69402;BME280;56589;51.992;5.924;2023-04-02T10:40:39;101745.22;;;6.32;65.48
69402;BME280;56589;51.992;5.924;2023-04-02T10:46:21;101737.59;;;6.24;63.93
69402;BME280;56589;51.992;5.924;2023-04-02T10:49:00;101765.81;;;6.11;64.08
69402;BME280;56589;51.992;5.924;2023-04-02T10:51:40;101772.34;;;5.96;63.93
69402;BME280;56589;51.992;5.924;2023-04-02T10:54:21;101777.13;;;5.81;62.82
69402;BME280;56589;51.992;5.924;2023-04-02T10:57:05;101775.75;;;5.67;63.28
69402;BME280;56589;51.992;5.924;2023-04-02T10:59:43;101762.84;;;5.63;63.65
69402;BME280;56589;51.992;5.924;2023-04-02T11:02:27;101772.19;;;5.71;63.65
69402;BME280;56589;51.992;5.924;2023-04-02T11:05:02;101769.47;;;5.76;63.64
69402;BME280;56589;51.992;5.924;2023-04-02T11:07:44;101783.28;;;5.78;63.22
69402;BME280;56589;51.992;5.924;2023-04-02T11:10:24;101767.25;;;5.92;60.31
69402;BME280;56589;51.992;5.924;2023-04-02T11:12:57;101774.66;;;6.06;62.57
69402;BME280;56589;51.992;5.924;2023-04-02T11:15:30;101782.84;;;6.23;61.73
69402;BME280;56589;51.992;5.924;2023-04-02T11:17:56;101783.31;;;6.37;61.84
69402;BME280;56589;51.992;5.924;2023-04-02T11:23:30;101777.06;;;6.69;60.21
69402;BME280;56589;51.992;5.924;2023-04-02T11:26:27;101791.44;;;6.82;60.71
69402;BME280;56589;51.992;5.924;2023-04-02T11:29:07;101789.28;;;6.95;59.52
69402;BME280;56589;51.992;5.924;2023-04-02T11:31:42;101781.22;;;7.01;60.00
69402;BME280;56589;51.992;5.924;2023-04-02T11:34:14;101792.13;;;7.14;58.64
69402;BME280;56589;51.992;5.924;2023-04-02T11:37:33;101793.81;;;7.15;57.44
69402;BME280;56589;51.992;5.924;2023-04-02T11:40:01;101803.47;;;7.13;57.98
69402;BME280;56589;51.992;5.924;2023-04-02T11:42:48;101799.81;;;7.19;57.41
69402;BME280;56589;51.992;5.924;2023-04-02T11:45:51;101804.03;;;7.23;57.09
69402;BME280;56589;51.992;5.924;2023-04-02T11:48:31;101807.19;;;7.32;58.30
69402;BME280;56589;51.992;5.924;2023-04-02T11:50:58;101810.31;;;7.44;56.18
69402;BME280;56589;51.992;5.924;2023-04-02T11:53:28;101813.47;;;7.53;58.17
69402;BME280;56589;51.992;5.924;2023-04-02T11:56:06;101811.38;;;7.63;56.27
69402;BME280;56589;51.992;5.924;2023-04-02T11:58:52;101816.53;;;7.65;56.79
69402;BME280;56589;51.992;5.924;2023-04-02T12:01:44;101814.63;;;7.70;54.73
69402;BME280;56589;51.992;5.924;2023-04-02T12:04:41;101827.69;;;7.70;57.35
69402;BME280;56589;51.992;5.924;2023-04-02T12:07:34;101823.28;;;7.72;57.22
69402;BME280;56589;51.992;5.924;2023-04-02T12:10:16;101832.69;;;7.76;55.72
69402;BME280;56589;51.992;5.924;2023-04-02T12:12:43;101832.25;;;7.88;57.81
69402;BME280;56589;51.992;5.924;2023-04-02T12:15:33;101836.47;;;7.92;54.90
69402;BME280;56589;51.992;5.924;2023-04-02T12:18:12;101843.31;;;7.96;57.64
69402;BME280;56589;51.992;5.924;2023-04-02T12:20:46;101837.66;;;8.07;57.14
69402;BME280;56589;51.992;5.924;2023-04-02T12:23:19;101841.72;;;8.15;56.89
69402;BME280;56589;51.992;5.924;2023-04-02T12:25:54;101866.06;;;8.18;55.62
69402;BME280;56589;51.992;5.924;2023-04-02T12:28:22;101855.53;;;8.19;56.74
69402;BME280;56589;51.992;5.924;2023-04-02T12:30:49;101852.81;;;8.22;54.87
69402;BME280;56589;51.992;5.924;2023-04-02T12:33:28;101858.31;;;8.14;55.51
69402;BME280;56589;51.992;5.924;2023-04-02T12:35:59;101858.50;;;8.10;54.56
69402;BME280;56589;51.992;5.924;2023-04-02T12:38:27;101877.59;;;8.12;54.69
69402;BME280;56589;51.992;5.924;2023-04-02T12:40:57;101877.81;;;8.06;53.23
69402;BME280;56589;51.992;5.924;2023-04-02T12:43:28;101881.34;;;8.05;54.62
69402;BME280;56589;51.992;5.924;2023-04-02T12:45:57;101876.88;;;8.08;54.71
69402;BME280;56589;51.992;5.924;2023-04-02T12:48:26;101884.66;;;8.10;55.20
69402;BME280;56589;51.992;5.924;2023-04-02T12:50:54;101894.09;;;8.14;55.23
69402;BME280;56589;51.992;5.924;2023-04-02T12:53:25;101894.38;;;8.30;55.47
69402;BME280;56589;51.992;5.924;2023-04-02T12:55:56;101878.91;;;8.47;55.24
69402;BME280;56589;51.992;5.924;2023-04-02T12:58:28;101881.78;;;8.63;54.89
69402;BME280;56589;51.992;5.924;2023-04-02T13:01:11;101885.78;;;8.73;53.99
69402;BME280;56589;51.992;5.924;2023-04-02T13:03:38;101883.09;;;8.75;53.74
69402;BME280;56589;51.992;5.924;2023-04-02T13:06:17;101882.47;;;8.68;53.41
69402;BME280;56589;51.992;5.924;2023-04-02T13:08:49;101872.00;;;8.68;53.78
69402;BME280;56589;51.992;5.924;2023-04-02T13:11:15;101890.56;;;8.62;52.83
69402;BME280;56589;51.992;5.924;2023-04-02T13:13:43;101900.56;;;8.51;52.78
69402;BME280;56589;51.992;5.924;2023-04-02T13:16:28;101894.00;;;8.40;50.15
69402;BME280;56589;51.992;5.924;2023-04-02T13:19:20;101894.09;;;8.37;49.85
69402;BME280;56589;51.992;5.924;2023-04-02T13:21:50;101890.63;;;8.37;51.04
69402;BME280;56589;51.992;5.924;2023-04-02T13:24:21;101889.72;;;8.38;50.77
69402;BME280;56589;51.992;5.924;2023-04-02T13:26:49;101889.72;;;8.38;50.76
69402;BME280;56589;51.992;5.924;2023-04-02T13:29:26;101896.72;;;8.37;52.11
69402;BME280;56589;51.992;5.924;2023-04-02T13:31:55;101889.63;;;8.41;50.41
69402;BME280;56589;51.992;5.924;2023-04-02T13:34:23;101881.69;;;8.42;52.56
69402;BME280;56589;51.992;5.924;2023-04-02T13:36:49;101881.41;;;8.50;51.99
69402;BME280;56589;51.992;5.924;2023-04-02T13:39:15;101890.69;;;8.59;52.91
69402;BME280;56589;51.992;5.924;2023-04-02T13:41:45;101890.16;;;8.73;53.18
69402;BME280;56589;51.992;5.924;2023-04-02T13:44:23;101885.47;;;8.81;51.26
69402;BME280;56589;51.992;5.924;2023-04-02T13:46:52;101883.09;;;8.75;52.11